Time;durP1;ratioP1;P1;durP2;ratioP2;P2;SDS_P1;SDS_P2;PMS_P1;PMS_P2;Temp;Humidity;BMP_temperature;BMP_pressure;BME280_temperature;BME280_humidity;BME280_pressure;Samples;Min_cycle;Max_cycle;Signal;HPM_P1;HPM_P2
2021/11/02 00:00:47;;;;;;;9.30;5.03;;;;;;;-149.78;100.00;50518.38;5017594;28;20476;-64
2021/11/02 00:03:12;;;;;;;5.97;3.40;;;;;;;-149.78;100.00;50530.13;5014807;28;20038;-64
2021/11/02 00:05:38;;;;;;;5.72;2.92;;;;;;;-149.78;100.00;50479.28;5019168;28;20041;-64
2021/11/02 00:08:04;;;;;;;4.93;2.30;;;;;;;-149.78;100.00;50545.75;5020087;28;20037;-63
2021/11/02 00:10:29;;;;;;;4.65;2.28;;;;;;;-149.78;100.00;50512.50;5016811;28;20038;-63
2021/11/02 00:12:56;;;;;;;2.85;2.15;;;;;;;-149.78;100.00;50537.94;5039503;28;20085;-63
2021/11/02 00:15:23;;;;;;;4.65;2.08;;;;;;;-149.78;100.00;50534.03;5038967;28;20033;-64
2021/11/02 00:17:52;;;;;;;3.35;1.90;;;;;;;-149.78;100.00;50481.22;5027965;28;20062;-63
2021/11/02 00:20:18;;;;;;;1.83;1.30;;;;;;;-149.78;100.00;50530.13;5024313;28;20037;-63
2021/11/02 00:22:54;;;;;;;3.55;1.25;;;;;;;-149.78;100.00;50530.13;5028657;28;20095;-63
2021/11/02 00:25:24;;;;;;;2.13;1.30;;;;;;;-149.78;100.00;50510.56;5013283;28;20042;-63
2021/11/02 00:27:50;;;;;;;1.92;0.98;;;;;;;-149.78;100.00;50496.88;5032110;28;20099;-63
2021/11/02 00:30:17;;;;;;;3.13;0.90;;;;;;;-149.78;100.00;50530.13;5032198;28;20044;-63
2021/11/02 00:32:45;;;;;;;1.10;0.90;;;;;;;-149.78;100.00;50514.47;5028985;28;20508;-63
2021/11/02 00:35:11;;;;;;;0.73;0.70;;;;;;;-149.78;100.00;50524.25;5032248;28;20065;-63
2021/11/02 00:37:38;;;;;;;0.90;0.80;;;;;;;-149.78;100.00;50494.91;5031532;28;20084;-63
2021/11/02 00:40:06;;;;;;;0.60;0.60;;;;;;;-149.78;100.00;50494.91;5029849;28;20034;-63
2021/11/02 00:42:40;;;;;;;0.63;0.50;;;;;;;-149.78;100.00;50491.00;5026454;28;20025;-63
2021/11/02 00:45:08;;;;;;;1.05;0.57;;;;;;;-149.78;100.00;50541.84;5031268;28;20037;-63
2021/11/02 00:47:34;;;;;;;0.52;0.50;;;;;;;-149.78;100.00;50537.94;5026700;28;20051;-63
2021/11/02 00:50:09;;;;;;;0.98;0.40;;;;;;;-149.78;100.00;50492.97;5030286;28;20029;-63
2021/11/02 00:52:35;;;;;;;1.50;0.50;;;;;;;-149.78;100.00;50494.91;5023759;28;20024;-63
2021/11/02 00:55:01;;;;;;;0.50;0.50;;;;;;;-149.78;100.00;50512.50;5028980;28;20033;-63
2021/11/02 00:57:26;;;;;;;0.75;0.45;;;;;;;-149.78;100.00;50541.84;5027103;28;20083;-63
2021/11/02 00:59:52;;;;;;;0.60;0.60;;;;;;;-149.78;100.00;50541.84;5023495;28;20045;-63
2021/11/02 01:02:18;;;;;;;1.08;0.55;;;;;;;-149.78;100.00;50526.22;5027746;28;20338;-63
2021/11/02 01:04:46;;;;;;;1.65;0.57;;;;;;;-149.78;100.00;50526.22;5032917;28;20033;-63
2021/11/02 01:07:13;;;;;;;0.82;0.45;;;;;;;-149.78;100.00;50494.91;5032175;28;20108;-64
2021/11/02 01:09:39;;;;;;;0.80;0.80;;;;;;;-149.78;100.00;50514.47;5035209;28;20057;-63
2021/11/02 01:12:05;;;;;;;0.50;0.50;;;;;;;-149.78;100.00;50537.94;5033717;28;20393;-64
2021/11/02 01:14:30;;;;;;;0.52;0.52;;;;;;;-149.78;100.00;50561.41;5030990;28;20083;-63
2021/11/02 01:16:56;;;;;;;0.75;0.52;;;;;;;-149.78;100.00;50526.22;5033298;28;20061;-63
2021/11/02 01:19:22;;;;;;;0.60;0.40;;;;;;;-149.78;100.00;50526.22;5029965;28;20055;-63
2021/11/02 01:21:48;;;;;;;0.90;0.40;;;;;;;-149.78;100.00;50549.69;5035410;28;20145;-63
2021/11/02 01:24:14;;;;;;;1.30;0.50;;;;;;;-149.78;100.00;50522.28;5046308;28;20037;-63
2021/11/02 01:26:40;;;;;;;1.42;0.70;;;;;;;-149.78;100.00;50580.97;5022409;28;20533;-63
2021/11/02 01:29:06;;;;;;;1.65;0.50;;;;;;;-149.78;100.00;50520.34;5042971;28;20033;-64
2021/11/02 01:31:32;;;;;;;2.30;0.60;;;;;;;-149.78;100.00;50557.50;5031807;28;20491;-63
2021/11/02 01:33:58;;;;;;;1.75;0.40;;;;;;;-149.78;100.00;50514.47;5029915;28;20128;-63
2021/11/02 01:36:24;;;;;;;0.88;0.55;;;;;;;-149.78;100.00;50530.13;5041174;28;20072;-63
2021/11/02 01:38:50;;;;;;;0.75;0.40;;;;;;;-149.78;100.00;50545.75;5039145;28;20037;-63
2021/11/02 01:41:18;;;;;;;1.13;0.50;;;;;;;-149.78;100.00;50545.75;5022096;28;20045;-63
2021/11/02 01:43:45;;;;;;;0.40;0.40;;;;;;;-149.78;100.00;50547.72;5037115;28;20493;-63
2021/11/02 01:46:26;;;;;;;2.13;0.60;;;;;;;-149.78;100.00;50537.94;5029870;28;20433;-63
2021/11/02 01:48:55;;;;;;;1.70;0.50;;;;;;;-149.78;100.00;50506.66;5027922;28;20030;-63
2021/11/02 01:51:22;;;;;;;0.63;0.60;;;;;;;-149.78;100.00;50522.28;5030726;28;20039;-63
2021/11/02 01:53:48;;;;;;;0.57;0.50;;;;;;;-149.78;100.00;50530.13;5020951;28;20404;-63
2021/11/02 01:56:13;;;;;;;0.60;0.40;;;;;;;-149.78;100.00;50551.63;5033889;28;20042;-63
2021/11/02 01:58:40;;;;;;;1.00;0.40;;;;;;;-149.78;100.00;50528.16;5034505;28;20080;-63
2021/11/02 02:01:10;;;;;;;1.50;0.60;;;;;;;-149.78;100.00;50532.06;5037054;28;20124;-64
2021/11/02 02:04:01;;;;;;;1.00;0.73;;;;;;;-149.78;100.00;50518.38;5028936;28;20087;-64
2021/11/02 02:06:51;;;;;;;1.80;1.00;;;;;;;-149.78;100.00;50541.84;5025361;28;20095;-62
2021/11/02 02:09:32;;;;;;;1.55;1.00;;;;;;;-149.78;100.00;50510.56;5029388;28;20058;-63
2021/11/02 02:12:27;;;;;;;1.65;1.02;;;;;;;-149.78;100.00;50526.22;5029283;28;20033;-64
2021/11/02 02:15:24;;;;;;;2.65;1.50;;;;;;;-149.78;100.00;50518.38;5032567;28;20135;-63
2021/11/02 02:18:15;;;;;;;4.10;2.28;;;;;;;-149.78;100.00;50561.41;5035741;28;20036;-63
2021/11/02 02:21:00;;;;;;;3.45;2.00;;;;;;;-149.78;100.00;50545.75;5034298;28;20042;-62
2021/11/02 02:23:44;;;;;;;2.95;1.70;;;;;;;-149.78;100.00;50502.75;5032691;28;20071;-63
2021/11/02 02:26:54;;;;;;;2.58;1.50;;;;;;;-149.78;100.00;50547.72;5026087;28;20029;-63
2021/11/02 02:29:22;;;;;;;1.20;1.08;;;;;;;-149.78;100.00;50530.13;5029200;28;20033;-67
2021/11/02 02:31:52;;;;;;;1.15;0.75;;;;;;;-149.78;100.00;50549.69;5031692;28;20025;-67
2021/11/02 02:34:21;;;;;;;2.13;0.60;;;;;;;-149.78;100.00;50522.28;5033534;28;20091;-67
2021/11/02 02:36:50;;;;;;;1.05;0.55;;;;;;;-149.78;100.00;50541.84;5027554;28;20037;-67
2021/11/02 02:39:17;;;;;;;0.55;0.50;;;;;;;-149.78;100.00;50535.97;5037337;28;20099;-67
2021/11/02 02:41:43;;;;;;;1.20;0.52;;;;;;;-149.78;100.00;50549.69;5031786;28;20037;-67
2021/11/02 02:44:11;;;;;;;0.70;0.52;;;;;;;-149.78;100.00;50545.75;5046485;28;20036;-67
2021/11/02 02:46:38;;;;;;;2.08;0.40;;;;;;;-149.78;100.00;50514.47;5023312;28;20037;-67
2021/11/02 02:49:05;;;;;;;1.10;0.60;;;;;;;-149.78;100.00;50494.91;5017073;28;20076;-67
2021/11/02 02:51:34;;;;;;;0.80;0.60;;;;;;;-149.78;100.00;50512.50;5029049;28;20040;-67
2021/11/02 02:54:01;;;;;;;1.52;0.50;;;;;;;-149.78;100.00;50543.81;5025130;28;20083;-67
2021/11/02 02:56:28;;;;;;;1.52;0.50;;;;;;;-149.78;100.00;50534.03;5024333;28;20052;-67
2021/11/02 02:59:00;;;;;;;0.45;0.30;;;;;;;-149.78;100.00;50543.81;5026000;28;20030;-67
2021/11/02 03:01:27;;;;;;;0.45;0.45;;;;;;;-149.78;100.00;50553.59;5033431;28;20068;-67
2021/11/02 03:04:17;;;;;;;0.60;0.45;;;;;;;-149.78;100.00;50541.84;5027927;28;20095;-67
2021/11/02 03:06:45;;;;;;;0.70;0.47;;;;;;;-149.78;100.00;50522.28;5027090;28;20033;-67
2021/11/02 03:09:11;;;;;;;0.77;0.50;;;;;;;-149.78;100.00;50537.94;5034486;28;20350;-67
2021/11/02 03:11:38;;;;;;;0.65;0.57;;;;;;;-149.78;100.00;50526.22;5023146;28;20048;-67
2021/11/02 03:14:08;;;;;;;1.80;0.60;;;;;;;-149.78;100.00;50541.84;5034520;28;20033;-67
2021/11/02 03:57:23;;;;;;;2.60;0.60;;;;;;;-149.78;100.00;50549.69;5017376;28;20374;-67
2021/11/02 04:46:52;;;;;;;3.90;0.90;;;;;;;-149.78;100.00;50557.50;5034731;28;19943;-68
2021/11/02 06:00:33;;;;;;;3.88;1.75;;;;;;;-149.78;100.00;50535.97;5034657;28;20037;-67
2021/11/02 06:28:22;;;;;;;7.13;2.10;;;;;;;-149.78;100.00;50549.69;5023971;28;20365;-67
2021/11/02 06:31:00;;;;;;;5.40;1.77;;;;;;;-149.78;100.00;50549.69;5033494;28;20450;-67
2021/11/02 06:54:57;;;;;;;7.30;2.00;;;;;;;-149.78;100.00;50545.75;5031030;28;20052;-67
2021/11/02 07:17:13;;;;;;;3.13;1.75;;;;;;;-149.78;100.00;50539.91;5024868;28;20046;-65
2021/11/02 07:19:51;;;;;;;5.38;1.50;;;;;;;-149.78;100.00;50553.59;5029350;28;20124;-66
2021/11/02 07:25:09;;;;;;;6.78;1.73;;;;;;;-149.78;100.00;50534.03;5025746;28;20033;-66
2021/11/02 08:46:50;;;;;;;6.95;2.33;;;;;;;-149.78;100.00;50539.91;5030274;28;20175;-67
2021/11/02 08:49:16;;;;;;;5.85;2.30;;;;;;;-149.78;100.00;50537.94;5032286;28;20033;-63
2021/11/02 08:51:42;;;;;;;8.02;2.85;;;;;;;-149.78;100.00;50535.97;5029158;28;20444;-62
2021/11/02 08:54:08;;;;;;;11.43;2.90;;;;;;;-149.78;100.00;50553.59;5030297;28;20034;-63
2021/11/02 08:56:34;;;;;;;6.15;2.45;;;;;;;-149.78;100.00;50510.56;5029300;28;20069;-63
2021/11/02 08:59:00;;;;;;;14.63;2.63;;;;;;;-149.78;100.00;50532.06;5034248;28;20037;-64
2021/11/02 09:01:27;;;;;;;4.57;2.13;;;;;;;-149.78;100.00;50524.25;5031491;28;20037;-63
2021/11/02 09:04:01;;;;;;;5.80;2.20;;;;;;;-149.78;100.00;50498.81;5029607;28;20179;-64
2021/11/02 09:06:27;;;;;;;7.55;2.58;;;;;;;-149.78;100.00;50534.03;5023795;28;20476;-64
2021/11/02 09:08:56;;;;;;;5.35;2.45;;;;;;;-149.78;100.00;50498.81;5028419;28;20392;-63
2021/11/02 09:11:26;;;;;;;7.57;2.67;;;;;;;-149.78;100.00;50534.03;5028498;28;20025;-63
2021/11/02 09:13:55;;;;;;;6.32;2.47;;;;;;;-149.78;100.00;50539.91;5028455;28;20053;-62
2021/11/02 09:16:23;;;;;;;6.38;2.97;;;;;;;-149.78;100.00;50524.25;5030042;28;20178;-62
2021/11/02 09:18:51;;;;;;;9.52;2.22;;;;;;;-149.78;100.00;50510.56;5040941;28;20033;-63
2021/11/02 09:21:18;;;;;;;5.88;2.17;;;;;;;-149.78;100.00;50500.78;5029512;28;20060;-63
2021/11/02 09:23:45;;;;;;;6.75;2.22;;;;;;;-149.78;100.00;50502.75;5028873;28;20041;-64
2021/11/02 09:26:11;;;;;;;12.70;3.20;;;;;;;-149.78;100.00;50479.28;5027017;28;20029;-69
2021/11/02 09:28:37;;;;;;;3.38;1.63;;;;;;;-149.78;100.00;50506.66;5018448;28;20034;-63
2021/11/02 09:31:04;;;;;;;8.68;2.10;;;;;;;-149.78;100.00;50506.66;5020005;28;20038;-63
2021/11/02 09:33:32;;;;;;;10.80;1.75;;;;;;;-149.78;100.00;50506.66;5029452;28;20550;-63
2021/11/02 09:36:00;;;;;;;6.85;1.90;;;;;;;-149.78;100.00;50516.44;5034409;28;20040;-63
2021/11/02 09:38:46;;;;;;;3.88;1.75;;;;;;;-149.78;100.00;50487.09;5033672;28;20080;-63
2021/11/02 09:41:49;;;;;;;2.88;1.70;;;;;;;-149.78;100.00;50491.00;5031519;28;20041;-62
2021/11/02 09:44:26;;;;;;;3.28;1.33;;;;;;;-149.78;100.00;50502.75;5033610;28;20029;-62
2021/11/02 09:47:26;;;;;;;5.18;1.45;;;;;;;-149.78;100.00;50475.34;5033386;28;20034;-63
2021/11/02 09:50:14;;;;;;;6.32;1.85;;;;;;;-149.78;100.00;50487.09;5033020;28;20025;-63
2021/11/02 09:53:20;;;;;;;2.88;1.30;;;;;;;-149.78;100.00;50471.44;5031988;28;20017;-63
2021/11/02 09:55:55;;;;;;;5.57;1.33;;;;;;;-149.78;100.00;50489.03;5031983;28;20033;-64
2021/11/02 09:58:49;;;;;;;4.85;1.42;;;;;;;-149.78;100.00;50487.09;5024961;28;20083;-64
2021/11/02 10:01:30;;;;;;;4.97;1.48;;;;;;;-149.78;100.00;50467.53;5033650;28;20453;-64
2021/11/02 10:04:25;;;;;;;6.32;1.50;;;;;;;-149.78;100.00;50483.19;5029942;28;20048;-64
2021/11/02 10:07:17;;;;;;;4.75;1.70;;;;;;;-149.78;100.00;50463.63;5018350;28;20052;-63
2021/11/02 10:10:01;;;;;;;5.45;1.58;;;;;;;-149.78;100.00;50483.19;5020470;28;20110;-65
2021/11/02 10:12:30;;;;;;;8.30;1.60;;;;;;;-149.78;100.00;50447.97;5017921;28;20053;-64
2021/11/02 10:15:12;;;;;;;5.20;1.50;;;;;;;-149.78;100.00;50416.69;5014985;28;20087;-63
2021/11/02 10:18:03;;;;;;;4.30;1.50;;;;;;;-149.78;100.00;50514.47;5016123;28;20137;-64
2021/11/02 10:21:07;;;;;;;8.63;1.50;;;;;;;-149.78;100.00;50444.06;5019449;28;20029;-64
2021/11/02 10:24:00;;;;;;;8.40;1.75;;;;;;;-149.78;100.00;50459.72;5031840;28;20128;-65
2021/11/02 10:27:14;;;;;;;4.53;1.45;;;;;;;-149.78;100.00;50487.09;5031346;28;20590;-63
2021/11/02 10:30:09;;;;;;;4.05;1.40;;;;;;;-149.78;100.00;50489.03;5032791;28;20036;-63
2021/11/02 10:32:40;;;;;;;6.22;1.98;;;;;;;-149.78;100.00;50440.16;5025070;28;20128;-65
2021/11/02 10:35:26;;;;;;;6.07;1.55;;;;;;;-149.78;100.00;50436.25;5034086;28;20033;-66
2021/11/02 10:38:00;;;;;;;5.72;1.83;;;;;;;-149.78;100.00;50455.81;5032372;28;20053;-66
2021/11/02 10:40:34;;;;;;;7.53;2.10;;;;;;;-149.78;100.00;50451.88;5023084;28;20037;-66
2021/11/02 10:43:37;;;;;;;5.93;2.70;;;;;;;-149.78;100.00;50455.81;5016996;28;20120;-66
2021/11/02 10:46:08;;;;;;;5.38;2.72;;;;;;;-149.78;100.00;50467.53;5023321;28;20492;-66
2021/11/02 10:48:46;;;;;;;9.07;3.60;;;;;;;-149.78;100.00;50463.63;5027615;28;20032;-66
2021/11/02 10:51:24;;;;;;;5.88;2.38;;;;;;;-149.78;100.00;50469.50;5032757;28;20429;-66
2021/11/02 10:54:31;;;;;;;3.95;1.50;;;;;;;-149.78;100.00;50455.81;5032525;28;20057;-66
2021/11/02 10:57:15;;;;;;;8.68;2.30;;;;;;;-149.78;100.00;50471.44;5022238;28;20053;-66
2021/11/02 10:59:46;;;;;;;7.50;1.63;;;;;;;-149.78;100.00;50457.75;5031237;28;20029;-66
2021/11/02 11:02:27;;;;;;;5.25;1.38;;;;;;;-149.78;100.00;50453.84;5032530;28;20034;-66
2021/11/02 11:04:55;;;;;;;6.80;1.50;;;;;;;-149.78;100.00;50455.81;5034837;28;20103;-66
2021/11/02 11:07:21;;;;;;;3.95;1.40;;;;;;;-149.78;100.00;50483.19;5024177;28;20030;-66
2021/11/02 11:09:51;;;;;;;5.75;1.30;;;;;;;-149.78;100.00;50473.41;5040014;28;20039;-65
2021/11/02 11:12:20;;;;;;;10.00;1.70;;;;;;;-149.78;100.00;50444.06;5019923;28;20037;-66
2021/11/02 11:14:46;;;;;;;3.40;1.40;;;;;;;-149.78;100.00;50467.53;5037291;28;20285;-66
2021/11/02 11:17:18;;;;;;;6.25;2.50;;;;;;;-149.78;100.00;50489.03;5021387;28;20033;-66
2021/11/02 11:19:58;;;;;;;5.60;1.33;;;;;;;-149.78;100.00;50481.22;5025089;28;20029;-65
2021/11/02 11:22:25;;;;;;;4.70;1.50;;;;;;;-149.78;100.00;50483.19;5026416;28;20052;-66
2021/11/02 11:25:00;;;;;;;4.18;1.00;;;;;;;-149.78;100.00;50459.72;5034314;28;20034;-67
2021/11/02 11:27:27;;;;;;;8.18;1.30;;;;;;;-149.78;100.00;50447.97;5020757;28;20034;-66
2021/11/02 11:30:05;;;;;;;4.90;1.23;;;;;;;-149.78;100.00;50451.88;5018263;28;20044;-66
2021/11/02 11:32:34;;;;;;;4.00;1.20;;;;;;;-149.78;100.00;50416.69;5024081;28;20044;-66
2021/11/02 11:35:02;;;;;;;10.13;1.10;;;;;;;-149.78;100.00;50436.25;5032354;28;20448;-67
2021/11/02 11:37:35;;;;;;;4.80;1.52;;;;;;;-149.78;100.00;50424.50;5025019;28;20038;-66
2021/11/02 11:40:08;;;;;;;7.85;1.20;;;;;;;-149.78;100.00;50471.44;5026738;28;20029;-66
2021/11/02 11:42:34;;;;;;;2.55;1.20;;;;;;;-149.78;100.00;50455.81;5029490;28;20481;-65
2021/11/02 11:45:28;;;;;;;5.53;1.23;;;;;;;-149.78;100.00;50444.06;5029757;28;20052;-65
2021/11/02 11:48:06;;;;;;;5.38;1.00;;;;;;;-149.78;100.00;50424.50;5044474;28;20045;-65
2021/11/02 11:50:33;;;;;;;3.53;1.10;;;;;;;-149.78;100.00;50453.84;5028963;28;20032;-65
2021/11/02 11:53:03;;;;;;;3.20;0.95;;;;;;;-149.78;100.00;50479.28;5022174;28;20125;-66
2021/11/02 11:55:30;;;;;;;4.68;1.30;;;;;;;-149.78;100.00;50463.63;5030053;28;20030;-66
2021/11/02 11:58:17;;;;;;;7.60;1.48;;;;;;;-149.78;100.00;50432.31;5027133;28;20099;-66
2021/11/02 12:01:10;;;;;;;3.88;1.10;;;;;;;-149.78;100.00;50432.31;5027135;28;20523;-67
2021/11/02 12:04:21;;;;;;;4.32;1.25;;;;;;;-149.78;100.00;50434.28;5029893;28;20471;-66
2021/11/02 12:06:58;;;;;;;4.65;1.30;;;;;;;-149.78;100.00;50455.81;5033887;28;20076;-63
2021/11/02 12:09:26;;;;;;;3.35;1.00;;;;;;;-149.78;100.00;50424.50;5017244;28;20147;-62
2021/11/02 12:12:04;;;;;;;6.45;1.45;;;;;;;-149.78;100.00;50424.50;5030536;28;20025;-62
2021/11/02 12:14:33;;;;;;;4.75;1.23;;;;;;;-149.78;100.00;50455.81;5030606;28;20112;-62
2021/11/02 12:17:02;;;;;;;3.70;1.20;;;;;;;-149.78;100.00;50440.16;5023855;28;20045;-62
2021/11/02 12:19:34;;;;;;;6.45;1.10;;;;;;;-149.78;100.00;50432.31;5028173;28;20068;-62
2021/11/02 12:22:04;;;;;;;3.38;1.52;;;;;;;-149.78;100.00;50469.50;5028009;28;20022;-62
2021/11/02 12:24:32;;;;;;;5.53;1.60;;;;;;;-149.78;100.00;50424.50;5031917;28;20085;-61
2021/11/02 12:27:10;;;;;;;6.43;1.33;;;;;;;-149.78;100.00;50416.69;5030539;28;20554;-62
2021/11/02 12:29:37;;;;;;;7.57;1.30;;;;;;;-149.78;100.00;50414.72;5030955;28;20350;-61
2021/11/02 12:32:05;;;;;;;11.23;1.42;;;;;;;-149.78;100.00;50428.41;5029525;28;20369;-61
2021/11/02 12:35:03;;;;;;;6.72;1.45;;;;;;;-149.78;100.00;50416.69;5026109;28;20546;-61
2021/11/02 12:37:29;;;;;;;8.40;1.42;;;;;;;-149.78;100.00;50440.16;5034175;28;20393;-62
2021/11/02 12:40:10;;;;;;;6.22;1.30;;;;;;;-149.78;100.00;50412.78;5021140;28;20052;-61
2021/11/02 12:42:38;;;;;;;5.40;1.38;;;;;;;-149.78;100.00;50451.88;5024392;28;20400;-61
2021/11/02 12:45:04;;;;;;;4.60;1.33;;;;;;;-149.78;100.00;50455.81;5038418;28;20051;-62
2021/11/02 12:47:31;;;;;;;3.47;1.20;;;;;;;-149.78;100.00;50434.28;5039604;28;20126;-61
2021/11/02 12:50:02;;;;;;;8.75;1.67;;;;;;;-149.78;100.00;50432.31;5029252;28;20030;-62
2021/11/02 12:52:33;;;;;;;3.72;1.10;;;;;;;-149.78;100.00;50432.31;5028367;28;20044;-63
2021/11/02 12:55:06;;;;;;;6.30;1.20;;;;;;;-149.78;100.00;50424.50;5031482;28;20084;-62
2021/11/02 12:57:37;;;;;;;3.58;1.15;;;;;;;-149.78;100.00;50432.31;5022537;28;20040;-63
2021/11/02 13:00:07;;;;;;;7.38;1.40;;;;;;;-149.78;100.00;50389.31;5027792;28;20105;-62
2021/11/02 13:02:34;;;;;;;4.80;1.35;;;;;;;-149.78;100.00;50444.06;5028921;28;20025;-63
2021/11/02 13:05:04;;;;;;;3.20;1.45;;;;;;;-149.78;100.00;50463.63;5027909;28;20052;-63
2021/11/02 13:07:42;;;;;;;3.85;1.50;;;;;;;-149.78;100.00;50463.63;5031246;28;20025;-62
2021/11/02 13:10:16;;;;;;;5.43;1.48;;;;;;;-149.78;100.00;50463.63;5026223;28;20610;-62
2021/11/02 13:12:45;;;;;;;5.30;1.40;;;;;;;-149.78;100.00;50467.53;5032558;28;20027;-62
2021/11/02 13:15:11;;;;;;;5.82;1.40;;;;;;;-149.78;100.00;50432.31;5019949;28;20066;-63
2021/11/02 13:17:41;;;;;;;7.68;1.50;;;;;;;-149.78;100.00;50459.72;5025502;28;20040;-63
2021/11/02 13:20:08;;;;;;;5.43;1.70;;;;;;;-149.78;100.00;50432.31;5031181;28;20045;-66
2021/11/02 13:22:34;;;;;;;8.85;1.50;;;;;;;-149.78;100.00;50447.97;5034060;28;20854;-66
2021/11/02 13:25:05;;;;;;;5.75;1.67;;;;;;;-149.78;100.00;50436.25;5026491;28;20041;-67
2021/11/02 13:27:37;;;;;;;7.38;1.70;;;;;;;-149.78;100.00;50463.63;5027353;28;20377;-66
2021/11/02 13:30:27;;;;;;;5.95;1.90;;;;;;;-149.78;100.00;50438.19;5035211;28;20354;-66
2021/11/02 13:33:08;;;;;;;7.85;1.23;;;;;;;-149.78;100.00;50432.31;5034615;28;20057;-66
2021/11/02 13:35:37;;;;;;;5.28;1.30;;;;;;;-149.78;100.00;50416.69;5033502;28;20026;-67
2021/11/02 13:38:19;;;;;;;4.05;1.35;;;;;;;-149.78;100.00;50434.28;5033197;28;20048;-67
2021/11/02 13:40:44;;;;;;;11.35;1.70;;;;;;;-149.78;100.00;50440.16;5020441;28;20041;-67
2021/11/02 13:43:10;;;;;;;7.32;1.40;;;;;;;-149.78;100.00;50451.88;5016763;28;20042;-67
2021/11/02 13:45:36;;;;;;;4.72;1.55;;;;;;;-149.78;100.00;50440.16;5017341;28;20087;-62
2021/11/02 13:48:04;;;;;;;7.28;2.10;;;;;;;-149.78;100.00;50428.41;5040790;28;20111;-67
2021/11/02 13:50:30;;;;;;;5.80;1.55;;;;;;;-149.78;100.00;50436.25;5021281;28;20052;-66
2021/11/02 13:52:57;;;;;;;4.30;1.40;;;;;;;-149.78;100.00;50416.69;5031372;28;20458;-67
2021/11/02 13:55:23;;;;;;;4.72;1.42;;;;;;;-149.78;100.00;50432.31;5033530;28;20044;-67
2021/11/02 13:57:48;;;;;;;5.40;1.90;;;;;;;-149.78;100.00;50473.41;5032699;28;20128;-67
2021/11/02 14:00:15;;;;;;;8.98;1.80;;;;;;;-149.78;100.00;50451.88;5032817;28;20123;-66
2021/11/02 14:02:43;;;;;;;8.73;1.92;;;;;;;-149.78;100.00;50479.28;5030422;28;20034;-66
2021/11/02 14:05:11;;;;;;;4.28;2.00;;;;;;;-149.78;100.00;50420.59;5028527;28;20473;-66
2021/11/02 14:07:39;;;;;;;5.82;1.73;;;;;;;-149.78;100.00;50471.44;5032057;28;20420;-66
2021/11/02 14:10:08;;;;;;;10.32;1.25;;;;;;;-149.78;100.00;50416.69;5028506;28;20033;-67
2021/11/02 14:12:36;;;;;;;6.60;1.65;;;;;;;-149.78;100.00;50440.16;5037424;28;20021;-67
2021/11/02 14:15:11;;;;;;;6.65;1.55;;;;;;;-149.78;100.00;50459.72;5022941;28;20058;-66
2021/11/02 14:17:58;;;;;;;2.25;1.30;;;;;;;-149.78;100.00;50432.31;5031274;28;20035;-63
2021/11/02 14:20:32;;;;;;;5.78;1.55;;;;;;;-149.78;100.00;50436.25;5029128;28;20037;-63
2021/11/02 14:23:17;;;;;;;4.25;1.85;;;;;;;-149.78;100.00;50420.59;5016197;28;20046;-62
2021/11/02 14:25:43;;;;;;;7.10;2.05;;;;;;;-149.78;100.00;50459.72;5033363;28;20025;-62
2021/11/02 14:28:10;;;;;;;7.05;3.00;;;;;;;-149.78;100.00;50475.34;5033894;28;20432;-63
2021/11/02 14:30:37;;;;;;;5.32;2.97;;;;;;;-149.78;100.00;50483.19;5023820;28;20061;-62
2021/11/02 14:33:15;;;;;;;10.27;2.80;;;;;;;-149.78;100.00;50436.25;5034752;28;20351;-63
2021/11/02 14:35:45;;;;;;;5.63;2.70;;;;;;;-149.78;100.00;50475.34;5032640;28;20036;-63
2021/11/02 14:38:24;;;;;;;7.78;2.53;;;;;;;-149.78;100.00;50487.09;5016412;28;20032;-61
2021/11/02 14:40:58;;;;;;;7.75;2.90;;;;;;;-149.78;100.00;50412.78;5034831;28;20449;-61
2021/11/02 14:43:27;;;;;;;6.50;2.40;;;;;;;-149.78;100.00;50424.50;5030935;28;20048;-61
2021/11/02 14:46:05;;;;;;;3.40;1.60;;;;;;;-149.78;100.00;50432.31;5033317;28;20041;-62
2021/11/02 14:48:47;;;;;;;6.32;1.40;;;;;;;-149.78;100.00;50436.25;5032951;28;20079;-62
2021/11/02 14:51:12;;;;;;;5.10;1.40;;;;;;;-149.78;100.00;50485.13;5029913;28;20104;-62
2021/11/02 14:53:43;;;;;;;4.95;1.40;;;;;;;-149.78;100.00;50483.19;5031640;28;20374;-62
2021/11/02 14:56:12;;;;;;;3.97;1.75;;;;;;;-149.78;100.00;50455.81;5032985;28;20470;-62
2021/11/02 14:58:41;;;;;;;2.20;1.55;;;;;;;-149.78;100.00;50459.72;5032737;28;20029;-62
2021/11/02 15:01:14;;;;;;;4.60;1.60;;;;;;;-149.78;100.00;50455.81;5032960;28;20034;-62
2021/11/02 15:03:51;;;;;;;3.92;1.65;;;;;;;-149.78;100.00;50455.81;5034108;28;20026;-62
2021/11/02 15:06:18;;;;;;;4.22;1.83;;;;;;;-149.78;100.00;50428.41;5030447;28;20033;-62
2021/11/02 15:08:46;;;;;;;4.50;1.92;;;;;;;-149.78;100.00;50491.00;5020238;28;20034;-62
2021/11/02 15:11:15;;;;;;;9.70;2.03;;;;;;;-149.78;100.00;50467.53;5013431;28;20056;-62
2021/11/02 15:13:57;;;;;;;4.93;1.77;;;;;;;-149.78;100.00;50463.63;5029706;28;20116;-62
2021/11/02 15:16:25;;;;;;;4.20;2.30;;;;;;;-149.78;100.00;50451.88;5029200;28;20112;-62
2021/11/02 15:18:53;;;;;;;4.88;2.03;;;;;;;-149.78;100.00;50408.84;5032036;28;20123;-62
2021/11/02 15:21:29;;;;;;;3.50;2.10;;;;;;;-149.78;100.00;50463.63;5032700;28;20408;-62
2021/11/02 15:23:55;;;;;;;8.25;2.30;;;;;;;-149.78;100.00;50483.19;5029709;28;20049;-62
2021/11/02 15:26:21;;;;;;;6.32;2.60;;;;;;;-149.78;100.00;50455.81;5030658;28;20036;-62
2021/11/02 15:28:50;;;;;;;4.28;2.40;;;;;;;-149.78;100.00;50447.97;5030009;28;20033;-62
2021/11/02 15:31:22;;;;;;;6.80;2.58;;;;;;;-149.78;100.00;50500.78;5037085;28;20052;-61
2021/11/02 15:33:49;;;;;;;4.93;2.53;;;;;;;-149.78;100.00;50424.50;5027473;28;20538;-61
2021/11/02 15:36:19;;;;;;;4.93;2.47;;;;;;;-149.78;100.00;50481.22;5031059;28;20519;-61
2021/11/02 15:39:03;;;;;;;5.70;2.95;;;;;;;-149.78;100.00;50440.16;5032305;28;20060;-61
2021/11/02 15:41:30;;;;;;;6.90;3.00;;;;;;;-149.78;100.00;50430.38;5029476;28;20063;-61
2021/11/02 15:43:56;;;;;;;12.13;3.17;;;;;;;-149.78;100.00;50475.34;5016141;28;20580;-62
2021/11/02 15:46:27;;;;;;;5.20;2.50;;;;;;;-149.78;100.00;50420.59;5025521;28;20033;-62
2021/11/02 15:48:55;;;;;;;8.23;2.60;;;;;;;-149.78;100.00;50471.44;5032499;28;20052;-61
2021/11/02 15:51:21;;;;;;;4.70;2.85;;;;;;;-149.78;100.00;50463.63;5032378;28;20101;-62
2021/11/02 15:53:47;;;;;;;4.80;2.85;;;;;;;-149.78;100.00;50502.75;5032687;28;20049;-63
2021/11/02 15:56:13;;;;;;;4.22;2.63;;;;;;;-149.78;100.00;50455.81;5029652;28;20037;-62
2021/11/02 15:58:38;;;;;;;7.90;2.83;;;;;;;-149.78;100.00;50463.63;5031311;28;20030;-61
2021/11/02 16:01:04;;;;;;;7.63;3.60;;;;;;;-149.78;100.00;50520.34;5031320;28;20033;-62
2021/11/02 16:03:34;;;;;;;8.60;2.40;;;;;;;-149.78;100.00;50477.31;5031287;28;20030;-62
2021/11/02 16:06:06;;;;;;;6.57;2.60;;;;;;;-149.78;100.00;50440.16;5032465;28;20034;-62
2021/11/02 16:08:32;;;;;;;5.60;2.50;;;;;;;-149.78;100.00;50471.44;5020918;28;20466;-61
2021/11/02 16:11:09;;;;;;;4.07;2.58;;;;;;;-149.78;100.00;50479.28;5035842;28;20048;-62
2021/11/02 16:13:35;;;;;;;6.00;2.50;;;;;;;-149.78;100.00;50479.28;5025996;28;20037;-62
2021/11/02 16:16:04;;;;;;;7.28;2.72;;;;;;;-149.78;100.00;50504.69;5022141;28;20546;-61
2021/11/02 16:18:33;;;;;;;12.65;5.60;;;;;;;-149.78;100.00;50473.41;5030959;28;20033;-62
2021/11/02 16:21:01;;;;;;;8.02;3.05;;;;;;;-149.78;100.00;50491.00;5029293;28;20286;-61
2021/11/02 16:23:41;;;;;;;6.15;3.20;;;;;;;-149.78;100.00;50459.72;5027496;28;20040;-62
2021/11/02 16:26:19;;;;;;;9.55;3.58;;;;;;;-149.78;100.00;50451.88;5031872;28;20075;-62
2021/11/02 16:28:45;;;;;;;10.13;4.20;;;;;;;-149.78;100.00;50491.00;5028576;28;20060;-62
2021/11/02 16:31:21;;;;;;;14.55;5.55;;;;;;;-149.78;100.00;50420.59;5026518;28;20465;-63
2021/11/02 16:33:47;;;;;;;16.42;6.97;;;;;;;-149.78;100.00;50477.31;5029765;28;20400;-62
2021/11/02 16:36:20;;;;;;;28.70;9.75;;;;;;;-149.78;100.00;50471.44;5019930;28;20042;-62
2021/11/02 16:38:46;;;;;;;21.35;9.88;;;;;;;-149.78;100.00;50463.63;5033062;28;20029;-62
2021/11/02 16:41:20;;;;;;;23.98;9.95;;;;;;;-149.78;100.00;50487.09;5044811;28;20030;-62